Time;durP1;ratioP1;P1;durP2;ratioP2;P2;SDS_P1;SDS_P2;PMS_P1;PMS_P2;Temp;Humidity;BMP_temperature;BMP_pressure;BME280_temperature;BME280_humidity;BME280_pressure;Samples;Min_cycle;Max_cycle;Signal;HPM_P1;HPM_P2
2022/10/14 00:02:08;;;;;;;;;;;27.80;95.20;;;;;;5061249;27;20204;-45
2022/10/14 00:04:34;;;;;;;;;;;27.80;95.20;;;;;;5060210;28;20141;-42
2022/10/14 00:07:00;;;;;;;;;;;27.80;95.10;;;;;;5061179;27;19904;-45
2022/10/14 00:09:26;;;;;;;;;;;27.80;95.10;;;;;;5061309;28;19948;-54
2022/10/14 00:11:53;;;;;;;;;;;27.70;95.10;;;;;;5061008;27;20000;-47
2022/10/14 00:14:20;;;;;;;;;;;27.80;95.10;;;;;;5082830;27;19942;-44
2022/10/14 00:16:47;;;;;;;;;;;27.70;95.10;;;;;;5062016;27;19940;-48
2022/10/14 00:19:14;;;;;;;;;;;27.70;95.10;;;;;;5116971;27;19907;-45
2022/10/14 00:21:42;;;;;;;;;;;27.70;95.10;;;;;;5147651;27;19903;-53
2022/10/14 00:24:10;;;;;;;;;;;27.70;95.10;;;;;;5166270;27;19918;-46
2022/10/14 00:26:37;;;;;;;;;;;27.70;95.10;;;;;;5155116;27;19905;-45
2022/10/14 00:29:05;;;;;;;;;;;27.70;95.20;;;;;;5138759;27;20068;-47
2022/10/14 00:31:31;;;;;;;;;;;27.70;95.10;;;;;;5165986;27;19907;-45
2022/10/14 00:33:57;;;;;;;;;;;27.70;95.20;;;;;;5166175;27;20192;-48
2022/10/14 00:36:24;;;;;;;;;;;27.70;95.20;;;;;;5166005;27;19899;-48
2022/10/14 00:38:51;;;;;;;;;;;27.70;95.20;;;;;;5147605;27;20091;-51
2022/10/14 00:41:22;;;;;;;;;;;27.60;95.10;;;;;;5165938;27;19934;-50
2022/10/14 00:43:51;;;;;;;;;;;27.70;95.20;;;;;;5166048;27;19907;-54
2022/10/14 00:46:17;;;;;;;;;;;27.60;95.10;;;;;;5165876;27;19938;-53
2022/10/14 00:48:43;;;;;;;;;;;27.60;95.00;;;;;;5166097;27;19907;-46
2022/10/14 00:51:10;;;;;;;;;;;27.70;95.00;;;;;;5165642;27;19925;-45
2022/10/14 00:53:38;;;;;;;;;;;27.70;95.00;;;;;;5164298;27;19908;-49
2022/10/14 00:56:04;;;;;;;;;;;27.70;95.00;;;;;;5145552;27;20121;-46
2022/10/14 00:58:35;;;;;;;;;;;27.60;95.00;;;;;;5164264;27;20180;-50
2022/10/14 01:01:01;;;;;;;;;;;27.60;94.90;;;;;;5165337;27;19903;-50
2022/10/14 01:03:27;;;;;;;;;;;27.60;94.90;;;;;;5165516;27;19914;-48
2022/10/14 01:05:57;;;;;;;;;;;27.60;94.90;;;;;;5166004;27;19975;-48
2022/10/14 01:08:29;;;;;;;;;;;27.60;94.80;;;;;;5147304;27;20182;-48
2022/10/14 01:11:09;;;;;;;;;;;27.70;94.80;;;;;;5165945;27;19932;-47
2022/10/14 01:13:39;;;;;;;;;;;27.60;94.70;;;;;;5165752;27;19903;-52
2022/10/14 01:16:08;;;;;;;;;;;27.60;94.80;;;;;;5165414;27;19907;-47
2022/10/14 01:18:58;;;;;;;;;;;27.60;94.80;;;;;;5165621;27;19903;-44
2022/10/14 01:21:30;;;;;;;;;;;27.60;94.80;;;;;;5153618;27;19907;-51
2022/10/14 01:24:14;;;;;;;;;;;27.60;94.70;;;;;;5169313;27;19977;-46
2022/10/14 01:26:59;;;;;;;;;;;27.60;94.60;;;;;;5169768;27;19914;-44
2022/10/14 01:29:43;;;;;;;;;;;27.60;94.60;;;;;;5169299;27;19938;-44
2022/10/14 01:32:12;;;;;;;;;;;27.60;94.60;;;;;;5150459;27;19915;-48
2022/10/14 01:34:51;;;;;;;;;;;27.50;94.50;;;;;;5150620;27;20103;-46
2022/10/14 01:37:21;;;;;;;;;;;27.60;94.50;;;;;;5169144;27;20169;-51
2022/10/14 01:39:49;;;;;;;;;;;27.50;94.40;;;;;;5168963;27;19903;-46
2022/10/14 01:42:19;;;;;;;;;;;27.50;94.40;;;;;;5169034;27;19903;-46
2022/10/14 01:44:49;;;;;;;;;;;27.60;94.50;;;;;;5168885;27;20132;-51
2022/10/14 01:47:18;;;;;;;;;;;27.50;94.40;;;;;;5169272;27;19913;-49
2022/10/14 01:49:47;;;;;;;;;;;27.50;94.30;;;;;;5168782;27;19904;-47
2022/10/14 01:52:18;;;;;;;;;;;27.50;94.30;;;;;;5168876;27;19910;-49
2022/10/14 01:54:46;;;;;;;;;;;27.50;94.30;;;;;;5168896;27;19925;-48
2022/10/14 01:57:14;;;;;;;;;;;27.50;94.20;;;;;;5168738;27;20236;-50
2022/10/14 01:59:42;;;;;;;;;;;27.50;94.20;;;;;;5168531;27;19903;-53
2022/10/14 02:02:10;;;;;;;;;;;27.50;94.20;;;;;;5168778;27;19910;-46
2022/10/14 02:04:38;;;;;;;;;;;27.50;94.20;;;;;;5168371;27;19914;-56
2022/10/14 02:07:06;;;;;;;;;;;27.50;94.30;;;;;;5168708;27;19963;-51
2022/10/14 02:09:46;;;;;;;;;;;27.50;94.20;;;;;;5168630;27;19943;-49
2022/10/14 02:12:22;;;;;;;;;;;27.50;94.20;;;;;;5150008;27;19907;-47
2022/10/14 02:14:52;;;;;;;;;;;27.40;94.20;;;;;;5149786;27;20155;-48
2022/10/14 02:17:41;;;;;;;;;;;27.40;94.20;;;;;;5168381;27;19906;-46
2022/10/14 02:20:23;;;;;;;;;;;27.50;94.30;;;;;;5120363;27;19907;-46
2022/10/14 02:22:57;;;;;;;;;;;27.40;94.20;;;;;;5168219;27;19914;-46
2022/10/14 02:25:29;;;;;;;;;;;27.40;94.20;;;;;;5168315;27;20176;-56
2022/10/14 02:27:56;;;;;;;;;;;27.40;94.20;;;;;;5168205;27;19903;-47
2022/10/14 02:30:22;;;;;;;;;;;27.40;94.20;;;;;;5168161;27;19907;-53
2022/10/14 02:32:49;;;;;;;;;;;27.40;94.40;;;;;;5167493;27;19958;-45
2022/10/14 02:35:17;;;;;;;;;;;27.40;94.10;;;;;;5168173;27;19921;-46
2022/10/14 02:37:44;;;;;;;;;;;27.40;94.10;;;;;;5167948;27;19987;-44
2022/10/14 02:40:15;;;;;;;;;;;27.40;94.10;;;;;;5167910;27;20006;-45
2022/10/14 02:42:42;;;;;;;;;;;27.40;94.10;;;;;;5167876;27;19913;-44
2022/10/14 02:45:09;;;;;;;;;;;27.30;94.30;;;;;;5167861;27;19907;-55
2022/10/14 02:47:36;;;;;;;;;;;27.30;94.00;;;;;;5149102;27;19907;-45
2022/10/14 02:50:02;;;;;;;;;;;27.30;93.90;;;;;;5167775;27;20133;-46
2022/10/14 02:52:28;;;;;;;;;;;27.30;93.90;;;;;;5167986;27;19903;-44
2022/10/14 02:54:54;;;;;;;;;;;27.30;94.00;;;;;;5148985;27;19903;-44
2022/10/14 02:57:22;;;;;;;;;;;27.30;93.90;;;;;;5149176;27;19903;-51
2022/10/14 02:59:48;;;;;;;;;;;27.20;93.90;;;;;;5127423;27;19927;-44
2022/10/14 03:02:14;;;;;;;;;;;27.30;93.90;;;;;;5135989;27;19903;-47
2022/10/14 03:04:40;;;;;;;;;;;27.20;93.80;;;;;;5119982;27;19983;-43
2022/10/14 03:07:06;;;;;;;;;;;27.20;93.80;;;;;;5056079;28;19958;-44
2022/10/14 03:09:32;;;;;;;;;;;27.20;93.80;;;;;;5054308;28;19940;-48
2022/10/14 03:11:59;;;;;;;;;;;27.20;93.80;;;;;;5131530;27;19917;-46
2022/10/14 03:14:25;;;;;;;;;;;27.20;93.80;;;;;;5050971;28;20124;-42
2022/10/14 03:16:51;;;;;;;;;;;27.20;93.70;;;;;;5042529;28;19909;-42
2022/10/14 03:19:17;;;;;;;;;;;27.20;93.70;;;;;;5042115;28;19905;-42
2022/10/14 03:21:45;;;;;;;;;;;27.20;93.60;;;;;;5042599;28;20180;-43
2022/10/14 03:24:11;;;;;;;;;;;27.20;93.70;;;;;;5041981;28;19946;-44
2022/10/14 03:26:37;;;;;;;;;;;27.20;93.60;;;;;;5042376;28;20094;-43
2022/10/14 03:29:03;;;;;;;;;;;27.20;93.60;;;;;;5057795;27;19909;-45
2022/10/14 03:31:29;;;;;;;;;;;27.20;93.60;;;;;;5042237;28;19909;-43
2022/10/14 03:33:55;;;;;;;;;;;27.20;93.60;;;;;;5155652;27;19964;-45
2022/10/14 03:36:21;;;;;;;;;;;27.20;93.60;;;;;;5073507;27;20181;-47
2022/10/14 03:38:47;;;;;;;;;;;27.20;93.50;;;;;;5042608;28;19908;-43
2022/10/14 03:41:13;;;;;;;;;;;27.20;93.60;;;;;;5042080;28;19909;-46
2022/10/14 03:43:39;;;;;;;;;;;27.20;93.50;;;;;;5041094;28;19979;-43
2022/10/14 03:46:06;;;;;;;;;;;27.20;93.50;;;;;;5041882;28;20121;-45
2022/10/14 03:48:32;;;;;;;;;;;27.20;93.50;;;;;;5045520;27;19912;-47
2022/10/14 03:50:58;;;;;;;;;;;27.10;93.40;;;;;;5053553;27;19909;-48
2022/10/14 03:53:24;;;;;;;;;;;27.20;93.50;;;;;;5053060;28;20189;-45
2022/10/14 03:55:50;;;;;;;;;;;27.20;93.50;;;;;;5042016;28;20178;-49
2022/10/14 03:58:16;;;;;;;;;;;27.20;93.60;;;;;;5041575;28;19951;-44
2022/10/14 04:00:43;;;;;;;;;;;27.20;93.50;;;;;;5041978;28;19909;-45
2022/10/14 04:03:09;;;;;;;;;;;27.20;93.50;;;;;;5041518;28;19912;-48
2022/10/14 04:05:35;;;;;;;;;;;27.20;93.40;;;;;;5041628;28;19916;-46
2022/10/14 04:08:02;;;;;;;;;;;27.20;93.40;;;;;;5041455;28;19909;-51
2022/10/14 04:10:28;;;;;;;;;;;27.20;93.30;;;;;;5066232;27;19909;-45
2022/10/14 04:12:55;;;;;;;;;;;27.20;93.40;;;;;;5073905;27;19905;-44
2022/10/14 04:15:21;;;;;;;;;;;27.20;93.40;;;;;;5060793;28;19940;-44
2022/10/14 04:17:48;;;;;;;;;;;27.20;93.30;;;;;;5060752;28;20101;-43
2022/10/14 04:20:15;;;;;;;;;;;27.20;93.30;;;;;;5060678;28;19932;-42
2022/10/14 04:22:41;;;;;;;;;;;27.20;93.30;;;;;;5061265;28;20193;-48
2022/10/14 04:25:08;;;;;;;;;;;27.20;93.40;;;;;;5061269;28;19920;-44
2022/10/14 04:27:34;;;;;;;;;;;27.20;93.40;;;;;;5061089;28;19901;-51
2022/10/14 04:30:00;;;;;;;;;;;27.20;93.40;;;;;;5061102;28;19908;-42
2022/10/14 04:32:26;;;;;;;;;;;27.20;93.50;;;;;;5061052;27;19913;-46
2022/10/14 04:34:53;;;;;;;;;;;27.20;93.50;;;;;;5043266;28;19911;-44
2022/10/14 04:37:20;;;;;;;;;;;27.20;93.60;;;;;;5059329;28;20000;-46
2022/10/14 04:39:46;;;;;;;;;;;27.20;93.60;;;;;;5052023;28;20213;-44
2022/10/14 04:42:12;;;;;;;;;;;27.20;93.60;;;;;;5041097;28;19905;-50
2022/10/14 04:44:38;;;;;;;;;;;27.20;93.70;;;;;;5038773;27;19916;-50
2022/10/14 04:47:04;;;;;;;;;;;27.20;93.70;;;;;;5056509;27;19940;-55
2022/10/14 04:49:30;;;;;;;;;;;27.20;93.80;;;;;;5065183;27;19912;-45
2022/10/14 04:51:57;;;;;;;;;;;27.10;93.90;;;;;;5065408;27;19940;-46
2022/10/14 04:54:23;;;;;;;;;;;27.20;93.80;;;;;;5049243;28;19905;-48
2022/10/14 04:56:49;;;;;;;;;;;27.20;93.80;;;;;;5054241;27;19972;-51
2022/10/14 04:59:15;;;;;;;;;;;27.10;93.80;;;;;;5061298;27;19913;-46
2022/10/14 05:01:41;;;;;;;;;;;27.10;93.80;;;;;;5054922;27;19948;-47
2022/10/14 05:04:08;;;;;;;;;;;27.10;93.80;;;;;;5054868;27;20116;-47
2022/10/14 05:06:34;;;;;;;;;;;27.10;94.10;;;;;;5066691;27;19909;-46
2022/10/14 05:09:00;;;;;;;;;;;27.10;93.90;;;;;;5053897;27;19905;-47
2022/10/14 05:11:26;;;;;;;;;;;27.10;93.90;;;;;;5067937;27;19917;-44
2022/10/14 05:13:52;;;;;;;;;;;27.10;93.90;;;;;;5057064;27;19905;-49
2022/10/14 05:16:18;;;;;;;;;;;27.10;93.90;;;;;;5063605;27;20181;-45
2022/10/14 05:18:44;;;;;;;;;;;27.10;94.00;;;;;;5063864;28;19911;-49
2022/10/14 05:21:10;;;;;;;;;;;27.10;94.20;;;;;;5063827;28;19931;-49
2022/10/14 05:23:36;;;;;;;;;;;27.10;94.00;;;;;;5063862;28;19908;-45
2022/10/14 05:26:03;;;;;;;;;;;27.10;94.00;;;;;;5063926;28;19951;-50
2022/10/14 05:28:29;;;;;;;;;;;27.00;94.00;;;;;;5056176;28;20181;-50
2022/10/14 05:30:56;;;;;;;;;;;27.00;93.90;;;;;;5044208;28;20224;-52
2022/10/14 05:33:22;;;;;;;;;;;27.00;94.00;;;;;;5044273;28;20172;-50
2022/10/14 05:35:48;;;;;;;;;;;27.00;94.00;;;;;;5054981;28;20181;-54
2022/10/14 05:38:14;;;;;;;;;;;27.00;93.90;;;;;;5043696;28;19905;-52
2022/10/14 05:40:40;;;;;;;;;;;27.00;93.90;;;;;;5043922;28;20066;-47
2022/10/14 05:43:06;;;;;;;;;;;27.00;93.90;;;;;;5043888;28;20235;-48
2022/10/14 05:45:32;;;;;;;;;;;27.00;93.90;;;;;;5043772;28;19909;-48
2022/10/14 05:47:59;;;;;;;;;;;27.00;93.90;;;;;;5043686;28;19905;-52
2022/10/14 05:50:25;;;;;;;;;;;27.00;94.00;;;;;;5043640;28;19909;-47
2022/10/14 05:52:51;;;;;;;;;;;27.00;94.00;;;;;;5046050;28;19945;-53
2022/10/14 05:55:17;;;;;;;;;;;27.00;94.00;;;;;;5050236;28;19915;-48
2022/10/14 05:57:43;;;;;;;;;;;27.00;94.00;;;;;;5063251;28;19905;-48
2022/10/14 06:00:10;;;;;;;;;;;27.00;94.10;;;;;;5063143;28;20208;-51
2022/10/14 06:02:36;;;;;;;;;;;27.00;94.10;;;;;;5054168;28;19905;-50
2022/10/14 06:05:02;;;;;;;;;;;26.90;94.10;;;;;;5043514;28;19926;-46
2022/10/14 06:07:28;;;;;;;;;;;26.90;94.10;;;;;;5042477;28;19905;-47
2022/10/14 06:09:54;;;;;;;;;;;26.90;94.00;;;;;;5042939;28;19905;-48
2022/10/14 06:12:20;;;;;;;;;;;27.00;94.10;;;;;;5043152;28;20026;-47
2022/10/14 06:14:46;;;;;;;;;;;26.90;94.00;;;;;;5043058;28;20083;-50
2022/10/14 06:17:12;;;;;;;;;;;26.90;94.10;;;;;;5043043;28;19905;-49
2022/10/14 06:19:39;;;;;;;;;;;26.90;94.10;;;;;;5042925;28;19928;-47
2022/10/14 06:22:05;;;;;;;;;;;26.90;94.30;;;;;;5043087;28;19911;-46
2022/10/14 06:24:31;;;;;;;;;;;26.90;94.10;;;;;;5042935;28;19909;-47
2022/10/14 06:26:57;;;;;;;;;;;26.90;94.10;;;;;;5043538;28;19946;-48
2022/10/14 06:29:30;;;;;;;;;;;26.90;94.00;;;;;;5043148;28;19953;-49
2022/10/14 06:31:56;;;;;;;;;;;26.90;94.00;;;;;;5043195;28;20095;-46
2022/10/14 06:34:23;;;;;;;;;;;26.90;93.90;;;;;;5043028;28;19949;-47
2022/10/14 06:36:49;;;;;;;;;;;26.90;94.00;;;;;;5043312;28;19909;-46
2022/10/14 06:39:15;;;;;;;;;;;26.90;94.00;;;;;;5042669;28;19971;-43
2022/10/14 06:41:41;;;;;;;;;;;26.90;94.00;;;;;;5043080;28;20126;-52
2022/10/14 06:44:08;;;;;;;;;;;26.90;93.90;;;;;;5042663;28;19984;-47
2022/10/14 06:46:34;;;;;;;;;;;26.90;93.90;;;;;;5042748;28;19909;-50
2022/10/14 06:49:00;;;;;;;;;;;26.90;93.80;;;;;;5042658;28;19950;-47
2022/10/14 06:51:26;;;;;;;;;;;26.90;93.80;;;;;;5042969;28;20182;-51
2022/10/14 06:53:52;;;;;;;;;;;26.90;93.80;;;;;;5042218;28;19901;-49
2022/10/14 06:56:18;;;;;;;;;;;26.90;93.70;;;;;;5042964;28;19917;-48
2022/10/14 06:58:44;;;;;;;;;;;26.80;93.60;;;;;;5042399;28;20101;-45
2022/10/14 07:01:10;;;;;;;;;;;26.90;93.60;;;;;;5042266;28;19909;-46
2022/10/14 07:03:38;;;;;;;;;;;26.80;93.60;;;;;;5042160;28;19909;-49
2022/10/14 07:06:04;;;;;;;;;;;26.80;93.60;;;;;;5042649;28;20085;-49
2022/10/14 07:08:31;;;;;;;;;;;26.80;93.50;;;;;;5042200;28;19983;-53
2022/10/14 07:10:57;;;;;;;;;;;26.70;93.40;;;;;;5042302;28;19917;-52
2022/10/14 07:13:23;;;;;;;;;;;26.80;93.40;;;;;;5042049;28;19979;-52
2022/10/14 07:15:50;;;;;;;;;;;26.70;93.30;;;;;;5042494;28;19916;-54
2022/10/14 07:18:17;;;;;;;;;;;26.80;93.30;;;;;;5041491;28;19931;-58
2022/10/14 07:20:44;;;;;;;;;;;26.80;93.50;;;;;;5042054;28;19909;-58
2022/10/14 07:23:11;;;;;;;;;;;26.80;93.20;;;;;;5041941;28;19908;-56
2022/10/14 07:25:37;;;;;;;;;;;26.80;93.20;;;;;;5042214;28;20190;-49
2022/10/14 07:28:04;;;;;;;;;;;26.80;93.00;;;;;;5041908;28;19912;-50
2022/10/14 07:30:30;;;;;;;;;;;26.80;93.10;;;;;;5042174;28;19975;-53
2022/10/14 07:32:58;;;;;;;;;;;26.80;93.10;;;;;;5041722;28;19913;-56
2022/10/14 07:35:25;;;;;;;;;;;26.70;93.10;;;;;;5042004;28;19909;-49
2022/10/14 07:37:52;;;;;;;;;;;26.80;93.10;;;;;;5041818;28;19912;-48
2022/10/14 07:40:18;;;;;;;;;;;26.80;93.00;;;;;;5041814;28;19916;-46
2022/10/14 07:42:44;;;;;;;;;;;26.80;93.00;;;;;;5041588;28;19901;-54
2022/10/14 07:45:16;;;;;;;;;;;26.80;93.00;;;;;;5041769;28;20232;-52
2022/10/14 07:47:43;;;;;;;;;;;26.80;93.00;;;;;;5041577;28;19905;-47
2022/10/14 07:50:09;;;;;;;;;;;26.70;93.00;;;;;;5041770;28;19913;-50
2022/10/14 07:52:36;;;;;;;;;;;26.70;93.10;;;;;;5041655;28;19972;-50
2022/10/14 07:55:03;;;;;;;;;;;26.80;93.10;;;;;;5041661;28;19972;-50
2022/10/14 07:57:29;;;;;;;;;;;26.80;93.10;;;;;;5041650;28;19905;-46
2022/10/14 07:59:55;;;;;;;;;;;26.70;93.10;;;;;;5041549;28;20082;-49
2022/10/14 08:02:22;;;;;;;;;;;26.70;93.10;;;;;;5041287;28;20113;-53
2022/10/14 08:04:52;;;;;;;;;;;26.70;93.10;;;;;;5041380;28;20197;-48
2022/10/14 08:07:18;;;;;;;;;;;26.80;93.10;;;;;;5041342;28;19911;-46
2022/10/14 08:09:44;;;;;;;;;;;26.80;93.10;;;;;;5041095;28;19905;-48
2022/10/14 08:12:10;;;;;;;;;;;26.80;93.10;;;;;;5041509;28;20101;-47
2022/10/14 08:14:36;;;;;;;;;;;26.80;93.20;;;;;;5041153;28;20201;-48
2022/10/14 08:17:02;;;;;;;;;;;26.80;93.20;;;;;;5041006;28;19905;-47
2022/10/14 08:19:28;;;;;;;;;;;26.70;93.20;;;;;;5041443;28;19938;-51
2022/10/14 08:21:55;;;;;;;;;;;26.80;93.20;;;;;;5041658;28;19913;-53
2022/10/14 08:24:21;;;;;;;;;;;26.80;93.20;;;;;;5041110;28;19909;-51
2022/10/14 08:26:51;;;;;;;;;;;26.80;93.20;;;;;;5041481;28;19958;-45
2022/10/14 08:29:17;;;;;;;;;;;26.70;93.20;;;;;;5041404;28;19909;-51
2022/10/14 08:31:43;;;;;;;;;;;26.70;93.20;;;;;;5047588;28;19917;-56
2022/10/14 08:34:10;;;;;;;;;;;26.70;93.20;;;;;;5047682;28;20253;-50
2022/10/14 08:36:36;;;;;;;;;;;26.70;93.30;;;;;;5048262;28;19909;-52
2022/10/14 08:39:04;;;;;;;;;;;26.80;93.30;;;;;;5047584;28;19932;-49
2022/10/14 08:41:30;;;;;;;;;;;26.80;93.40;;;;;;5048095;28;19944;-52
2022/10/14 08:43:59;;;;;;;;;;;26.70;93.40;;;;;;5047667;28;19905;-46
2022/10/14 08:46:29;;;;;;;;;;;26.70;93.40;;;;;;5047403;28;19909;-51
2022/10/14 08:49:01;;;;;;;;;;;26.70;93.40;;;;;;5047537;28;19992;-51
2022/10/14 08:51:29;;;;;;;;;;;26.70;93.40;;;;;;5047989;28;19909;-45
2022/10/14 08:54:02;;;;;;;;;;;26.70;93.40;;;;;;5047374;28;19940;-45
2022/10/14 08:56:28;;;;;;;;;;;26.70;93.50;;;;;;5047993;28;20097;-46
2022/10/14 08:58:54;;;;;;;;;;;26.70;93.60;;;;;;5047709;28;19905;-49
2022/10/14 09:01:39;;;;;;;;;;;26.70;93.50;;;;;;5048052;28;20071;-50
2022/10/14 09:04:06;;;;;;;;;;;26.70;93.50;;;;;;5066784;28;19944;-47
2022/10/14 09:06:33;;;;;;;;;;;26.60;93.50;;;;;;5067758;27;19969;-49
2022/10/14 09:09:05;;;;;;;;;;;26.70;93.60;;;;;;5067361;28;20267;-43
2022/10/14 09:11:36;;;;;;;;;;;26.70;93.60;;;;;;5057344;28;19909;-44
2022/10/14 09:14:05;;;;;;;;;;;26.70;93.60;;;;;;5047312;28;19913;-48
2022/10/14 09:16:34;;;;;;;;;;;26.60;93.50;;;;;;5047637;28;20092;-46
2022/10/14 09:19:02;;;;;;;;;;;26.70;93.60;;;;;;5052899;28;19908;-47
2022/10/14 09:21:28;;;;;;;;;;;26.70;93.60;;;;;;5067481;28;19905;-43
2022/10/14 09:24:09;;;;;;;;;;;26.70;93.60;;;;;;5067134;28;19945;-45
2022/10/14 09:26:38;;;;;;;;;;;26.60;93.60;;;;;;5067367;28;19909;-49
2022/10/14 09:29:05;;;;;;;;;;;26.70;93.70;;;;;;5067173;27;19905;-48
2022/10/14 09:31:31;;;;;;;;;;;26.60;93.60;;;;;;5067806;27;20197;-47
2022/10/14 09:33:58;;;;;;;;;;;26.70;93.70;;;;;;5127757;27;19913;-46
2022/10/14 09:36:24;;;;;;;;;;;26.70;93.70;;;;;;5173001;27;19969;-46
2022/10/14 09:38:51;;;;;;;;;;;26.70;93.70;;;;;;5172332;27;19945;-48
2022/10/14 09:41:21;;;;;;;;;;;26.70;93.70;;;;;;5171333;27;19930;-54
2022/10/14 09:44:05;;;;;;;;;;;26.70;93.60;;;;;;5160780;27;19942;-50
2022/10/14 09:46:31;;;;;;;;;;;26.70;93.60;;;;;;5169418;27;20203;-45
2022/10/14 09:48:57;;;;;;;;;;;26.60;93.60;;;;;;5168987;27;20133;-50
2022/10/14 09:51:24;;;;;;;;;;;26.60;93.60;;;;;;5169292;27;19977;-48
2022/10/14 09:54:00;;;;;;;;;;;26.60;93.60;;;;;;5124064;27;19974;-49
2022/10/14 09:56:40;;;;;;;;;;;26.60;93.60;;;;;;5063838;28;19909;-56
2022/10/14 09:59:16;;;;;;;;;;;26.60;93.60;;;;;;5126088;27;20091;-54
2022/10/14 10:01:53;;;;;;;;;;;26.60;93.60;;;;;;5169206;27;19913;-52
2022/10/14 10:04:45;;;;;;;;;;;26.60;93.60;;;;;;5168515;27;19910;-47
2022/10/14 10:07:28;;;;;;;;;;;26.60;93.60;;;;;;5157403;27;19944;-45
2022/10/14 10:09:58;;;;;;;;;;;26.60;93.60;;;;;;5168570;27;19903;-45
2022/10/14 10:12:32;;;;;;;;;;;26.60;93.60;;;;;;5168495;27;20184;-50
2022/10/14 10:15:02;;;;;;;;;;;26.60;93.60;;;;;;5168263;27;19907;-45
2022/10/14 10:17:31;;;;;;;;;;;26.60;93.60;;;;;;5168405;27;19978;-50
2022/10/14 10:20:08;;;;;;;;;;;26.60;93.60;;;;;;5168373;27;19903;-50
2022/10/14 10:22:37;;;;;;;;;;;26.60;93.50;;;;;;5160003;27;20171;-50
2022/10/14 10:25:04;;;;;;;;;;;26.60;93.60;;;;;;5063006;28;19909;-50
2022/10/14 10:27:59;;;;;;;;;;;26.60;93.60;;;;;;5063039;28;19943;-55
2022/10/14 10:30:42;;;;;;;;;;;26.60;93.60;;;;;;5026198;28;20185;-50
2022/10/14 10:33:15;;;;;;;;;;;26.60;93.50;;;;;;5066104;27;19911;-47
2022/10/14 10:35:51;;;;;;;;;;;26.60;93.50;;;;;;5063055;28;19916;-48
2022/10/14 10:38:22;;;;;;;;;;;26.60;93.50;;;;;;5062934;28;20138;-49
2022/10/14 10:41:07;;;;;;;;;;;26.60;93.50;;;;;;5135808;27;19965;-47
2022/10/14 10:43:48;;;;;;;;;;;26.60;93.50;;;;;;5063890;27;19916;-49
2022/10/14 10:46:19;;;;;;;;;;;26.60;93.50;;;;;;5153703;27;19907;-50
2022/10/14 10:48:48;;;;;;;;;;;26.60;93.50;;;;;;5059271;27;20120;-50
2022/10/14 10:51:26;;;;;;;;;;;26.60;93.40;;;;;;5068992;27;19930;-53
2022/10/14 10:54:07;;;;;;;;;;;26.60;93.40;;;;;;5111818;27;20082;-48
2022/10/14 10:56:37;;;;;;;;;;;26.60;93.50;;;;;;5054975;27;20119;-49
2022/10/14 10:59:14;;;;;;;;;;;26.50;93.50;;;;;;5149148;27;19934;-50
2022/10/14 11:02:02;;;;;;;;;;;26.50;93.40;;;;;;5152181;27;19907;-47
2022/10/14 11:04:31;;;;;;;;;;;26.50;93.40;;;;;;5167770;27;19907;-44
2022/10/14 11:12:58;;;;;;;;;;;26.50;93.50;;;;;;5063447;28;20136;-46
2022/10/14 11:15:29;;;;;;;;;;;26.50;93.40;;;;;;5052921;28;20152;-46
2022/10/14 11:17:56;;;;;;;;;;;26.60;93.50;;;;;;5070381;27;20008;-47
2022/10/14 11:20:26;;;;;;;;;;;26.60;93.60;;;;;;5062478;28;19917;-46
2022/10/14 11:23:03;;;;;;;;;;;26.60;93.60;;;;;;5061957;28;20166;-53
2022/10/14 11:25:48;;;;;;;;;;;26.60;93.60;;;;;;5043433;28;19915;-50
2022/10/14 11:28:35;;;;;;;;;;;26.60;93.60;;;;;;5061904;28;20005;-54
2022/10/14 11:31:07;;;;;;;;;;;26.50;93.60;;;;;;5061590;28;19936;-53
2022/10/14 11:34:05;;;;;;;;;;;26.60;93.60;;;;;;5041080;28;20168;-55
2022/10/14 11:36:38;;;;;;;;;;;26.60;93.60;;;;;;5081039;28;20125;-57
2022/10/14 11:39:09;;;;;;;;;;;26.60;93.60;;;;;;5058545;28;19912;-46
2022/10/14 11:41:54;;;;;;;;;;;26.50;93.60;;;;;;5059327;28;19909;-49
2022/10/14 11:44:28;;;;;;;;;;;26.60;93.60;;;;;;5040875;28;19909;-47
2022/10/14 11:46:57;;;;;;;;;;;26.60;93.60;;;;;;5060643;28;19915;-46
2022/10/14 11:49:36;;;;;;;;;;;26.60;93.70;;;;;;5062725;28;20192;-46
2022/10/14 11:52:06;;;;;;;;;;;26.60;93.80;;;;;;5061939;28;19908;-48
2022/10/14 11:54:45;;;;;;;;;;;26.60;93.80;;;;;;5062147;28;19905;-47
2022/10/14 11:57:11;;;;;;;;;;;26.60;93.80;;;;;;5061791;28;19917;-48
2022/10/14 11:59:37;;;;;;;;;;;26.60;93.80;;;;;;5061416;28;19912;-44
2022/10/14 12:02:11;;;;;;;;;;;26.60;93.90;;;;;;5061169;28;19926;-46
2022/10/14 12:04:43;;;;;;;;;;;26.60;93.90;;;;;;5060434;28;20216;-49
2022/10/14 12:07:17;;;;;;;;;;;26.60;93.90;;;;;;5044377;28;19905;-55
2022/10/14 12:09:47;;;;;;;;;;;26.60;93.90;;;;;;5061224;28;20245;-52
2022/10/14 12:12:16;;;;;;;;;;;26.60;93.90;;;;;;5043823;28;19912;-50
2022/10/14 12:14:45;;;;;;;;;;;26.60;94.00;;;;;;5061312;28;19976;-50
2022/10/14 12:17:20;;;;;;;;;;;26.60;94.20;;;;;;5062209;28;19916;-47
2022/10/14 12:19:46;;;;;;;;;;;26.60;94.20;;;;;;5061638;28;20100;-47
2022/10/14 12:22:15;;;;;;;;;;;26.60;94.30;;;;;;5061511;28;19905;-51
2022/10/14 12:24:47;;;;;;;;;;;26.60;94.30;;;;;;5061185;28;19909;-46
2022/10/14 12:27:14;;;;;;;;;;;26.60;94.40;;;;;;5043570;28;19940;-50
2022/10/14 12:29:41;;;;;;;;;;;26.60;94.40;;;;;;5043397;28;19901;-52
2022/10/14 12:32:08;;;;;;;;;;;26.60;94.30;;;;;;5061119;27;20116;-52
2022/10/14 12:34:39;;;;;;;;;;;26.60;94.30;;;;;;5061340;28;19945;-52
2022/10/14 12:37:23;;;;;;;;;;;26.60;94.30;;;;;;5061202;28;20197;-47
2022/10/14 12:39:50;;;;;;;;;;;26.60;94.30;;;;;;5061183;28;20082;-61
2022/10/14 12:42:17;;;;;;;;;;;26.60;94.20;;;;;;5060915;28;19912;-53
2022/10/14 12:44:43;;;;;;;;;;;26.50;94.30;;;;;;5060832;28;20192;-54
2022/10/14 12:47:27;;;;;;;;;;;26.50;94.30;;;;;;5061659;28;19908;-53
2022/10/14 12:49:57;;;;;;;;;;;26.60;94.30;;;;;;5043341;28;19912;-50
2022/10/14 12:52:29;;;;;;;;;;;26.60;94.30;;;;;;5061903;28;19905;-53
2022/10/14 12:54:57;;;;;;;;;;;26.60;94.30;;;;;;5061213;28;20200;-50
2022/10/14 12:57:33;;;;;;;;;;;26.50;94.40;;;;;;5061331;28;19901;-50
2022/10/14 13:00:00;;;;;;;;;;;26.60;94.60;;;;;;5060788;28;19909;-50
2022/10/14 13:02:35;;;;;;;;;;;26.60;94.70;;;;;;5043174;28;19908;-47
2022/10/14 19:55:47;;;;;;;;;;;26.80;98.10;;;;;;6023298;22;3270962;-42
2022/10/14 19:58:13;;;;;;;;;;;26.80;98.00;;;;;;6196786;23;20266;-47
2022/10/14 20:00:39;;;;;;;;;;;26.90;98.10;;;;;;6196520;23;19908;-46
2022/10/14 20:03:05;;;;;;;;;;;26.90;97.80;;;;;;6196711;23;20099;-45
2022/10/14 20:05:31;;;;;;;;;;;26.90;97.70;;;;;;6197190;23;19948;-43
2022/10/14 20:07:58;;;;;;;;;;;26.90;97.50;;;;;;6196857;23;19907;-46
2022/10/14 20:10:24;;;;;;;;;;;26.90;97.50;;;;;;6197046;23;20176;-48
2022/10/14 20:12:50;;;;;;;;;;;26.90;97.40;;;;;;6196660;23;19911;-49
2022/10/14 20:15:16;;;;;;;;;;;26.90;97.20;;;;;;6196962;23;19909;-44
2022/10/14 20:17:45;;;;;;;;;;;26.90;97.20;;;;;;6194163;23;19912;-44
2022/10/14 20:20:11;;;;;;;;;;;26.90;97.10;;;;;;6196410;23;19936;-49
2022/10/14 20:22:37;;;;;;;;;;;26.90;97.10;;;;;;6196489;23;19908;-44
2022/10/14 20:25:04;;;;;;;;;;;26.90;97.00;;;;;;6196838;23;19904;-46
2022/10/14 20:27:30;;;;;;;;;;;26.90;96.70;;;;;;6196747;23;19911;-54
2022/10/14 20:29:57;;;;;;;;;;;26.90;96.70;;;;;;6196235;23;19971;-43
2022/10/14 20:32:24;;;;;;;;;;;27.00;96.80;;;;;;6196596;23;20187;-47
2022/10/14 20:34:50;;;;;;;;;;;27.00;96.80;;;;;;6196405;23;20100;-46
2022/10/14 20:37:16;;;;;;;;;;;27.00;96.70;;;;;;6196381;23;19939;-52
2022/10/14 20:39:43;;;;;;;;;;;27.00;96.70;;;;;;6196757;23;19965;-52
2022/10/14 20:42:09;;;;;;;;;;;27.00;96.70;;;;;;6196443;23;20192;-48
2022/10/14 20:44:35;;;;;;;;;;;27.00;96.60;;;;;;6196416;23;19908;-44
2022/10/14 20:47:01;;;;;;;;;;;27.00;96.60;;;;;;6196437;23;19920;-46
2022/10/14 20:49:27;;;;;;;;;;;27.00;96.60;;;;;;6196814;23;19908;-56
2022/10/14 20:51:53;;;;;;;;;;;27.00;96.50;;;;;;6196556;23;19907;-48
2022/10/14 20:54:19;;;;;;;;;;;27.00;96.60;;;;;;6187892;23;19936;-46
2022/10/14 20:56:45;;;;;;;;;;;27.10;96.60;;;;;;6166718;23;19905;-44
2022/10/14 20:59:12;;;;;;;;;;;27.10;96.50;;;;;;6166193;23;19932;-53
2022/10/14 21:01:38;;;;;;;;;;;27.10;96.50;;;;;;6165381;23;20283;-45
2022/10/14 21:04:06;;;;;;;;;;;27.00;96.50;;;;;;6166728;23;19932;-42
2022/10/14 21:06:32;;;;;;;;;;;27.10;96.50;;;;;;6166025;23;19905;-42
2022/10/14 21:08:59;;;;;;;;;;;27.10;96.40;;;;;;6166556;23;19908;-45
2022/10/14 21:11:26;;;;;;;;;;;27.10;96.50;;;;;;6166026;23;20095;-46
2022/10/14 21:13:54;;;;;;;;;;;27.10;96.50;;;;;;6166419;23;19911;-46
2022/10/14 21:16:23;;;;;;;;;;;27.10;96.50;;;;;;6165986;23;20104;-45
2022/10/14 21:18:53;;;;;;;;;;;27.10;96.50;;;;;;6165837;23;19912;-51
2022/10/14 21:21:21;;;;;;;;;;;27.10;96.60;;;;;;6166399;23;19931;-46
2022/10/14 21:23:48;;;;;;;;;;;27.10;96.70;;;;;;6166618;23;19947;-46